Wednesday, April 25, 2018, 5:06 AM EDT
Back to Local

KTAN, Taunton Municipal Airport

Location: East Taunton, MA, United States Lat: 41.883
Local Time: 5:06 AM EDT ( 9:06 GMT) Lon: -71.017
Time Zone: US/Eastern Elev: 42 ft

Show me the last for .
Show Decoded

2018-04-25 04:52 METAR KTAN 250852Z AUTO 00000KT 10SM SCT060 BKN110 11/07 A3013 RMK AO2 SLP203
                 T01060067 56028 =
2018-04-25 03:52 METAR KTAN 250752Z AUTO 00000KT 10SM CLR 10/06 A3015 RMK AO2 SLP210 T01000056 =
2018-04-25 02:52 METAR KTAN 250652Z AUTO 00000KT 10SM CLR 08/04 A3018 RMK AO2 SLP221 T00830044 =
2018-04-25 01:52 METAR KTAN 250552Z AUTO 00000KT 10SM FEW060 09/03 A3021 RMK AO2 SLP231 T00940028
                 10122 20094 58024 =
2018-04-25 00:52 METAR KTAN 250452Z AUTO 00000KT 10SM FEW060 10/02 A3024 RMK AO2 SLP241 T01000022
                 401891017 =
2018-04-24 23:52 METAR KTAN 250352Z AUTO 13004KT 10SM BKN041 OVC070 10/02 A3026 RMK AO2 SLP248
                 T01000022 =
2018-04-24 22:52 METAR KTAN 250252Z AUTO VRB03KT 10SM BKN048 OVC065 11/02 A3028 RMK AO2 SLP254
                 T01060017 58001 =
2018-04-24 21:52 METAR KTAN 250152Z AUTO 18004KT 10SM CLR 11/03 A3029 RMK AO2 SLP258 T01060033 =
2018-04-24 20:52 METAR KTAN 250052Z AUTO 16005KT 10SM CLR 11/04 A3030 RMK AO2 SLP261 T01110044 =
2018-04-24 19:52 METAR KTAN 242352Z AUTO 17005KT 10SM CLR 12/02 A3029 RMK AO2 SLP256 T01220017
                 10189 20122 56008 =
2018-04-24 18:52 METAR KTAN 242252Z AUTO 16004KT 10SM CLR 13/01 A3029 RMK AO2 SLP255 T01330006 =
2018-04-24 17:52 METAR KTAN 242152Z AUTO 19010KT 10SM CLR 14/M01 A3031 RMK AO2 SLP263 T01441006 =
2018-04-24 16:52 METAR KTAN 242052Z AUTO 19008KT 10SM CLR 17/M01 A3031 RMK AO2 SLP264 T01671006
                 56015 =
2018-04-24 15:52 METAR KTAN 241952Z AUTO 19009G19KT 160V230 10SM CLR 18/01 A3032 RMK AO2 SLP266
                 T01780011 =
2018-04-24 14:52 METAR KTAN 241852Z AUTO 19010G19KT 10SM CLR 17/M01 A3034 RMK AO2 SLP273
                 T01721006 =
2018-04-24 13:52 METAR KTAN 241752Z AUTO 21011G18KT 10SM CLR 19/02 A3035 RMK AO2 SLP279 T01890022
                 10189 20089 56023 =
2018-04-24 12:52 METAR KTAN 241652Z AUTO 22010G17KT 10SM CLR 18/01 A3036 RMK AO2 SLP282 T01830006
                 =
2018-04-24 11:52 METAR KTAN 241552Z AUTO 22007KT 180V250 10SM CLR 17/01 A3039 RMK AO2 SLP292
                 T01720006 =
2018-04-24 10:52 METAR KTAN 241452Z AUTO 20010KT 10SM CLR 16/01 A3042 RMK AO2 SLP302 T01610006
                 58004 =
2018-04-24 09:52 METAR KTAN 241352Z AUTO 22008KT 10SM CLR 14/01 A3042 RMK AO2 SLP303 T01440011 =
2018-04-24 08:52 METAR KTAN 241252Z AUTO VRB05KT 10SM CLR 13/04 A3044 RMK AO2 SLP306 T01280039 =
2018-04-24 07:52 METAR KTAN 241152Z AUTO 24004KT 10SM CLR 09/03 A3043 RMK AO2 SLP306 I6001
                 T00890033 10089 21017 53006 =
2018-04-24 06:52 METAR KTAN 241052Z AUTO 00000KT 10SM CLR 01/01 A3043 RMK AO2 SLP304 I1000
                 T00110006 =
2018-04-24 06:27 METAR KTAN 241027Z AUTO 00000KT 4SM BR CLR M01/M02 A3043 RMK AO2 I1000 T10111017
                 =
2018-04-24 06:16 METAR KTAN 241016Z AUTO 00000KT 2SM BR CLR M01/M03 A3042 RMK AO2 I1000 T10111028
                 =
2018-04-24 05:52 METAR KTAN 240952Z AUTO 00000KT 10SM CLR M02/M02 A3041 RMK AO2 SLP299 I1000
                 T10171022 =

Support USWX by starting your Amazon purchase here.